Andersonville, Tennessee
Current Conditions -  °F | °C
As of 6:53 PM on Friday 19 Dec 2014 (Local Time) from KOQT Reporting Station
Clear Clear  
Wind Chill: 39°   Ceiling: Unl
Heat Index: 42°   Visibility: 10mi
Dew Point: 26°   Wind: 5mph
Humidity: 53%   Direction: NA
Pressure: 30.21"   Gusts: NA
Location:  36.2°N, 84.04°W
Report Text: KOQT 192353Z AUTO VRB04KT 10SM CLR 06/M03 A3021 RMK AO2 SLP243 T00561033 10094 20056 53010
Loading
Personal Weather Stations






























Interactive Weather Map New forecast layout! Learn more

10-Day Weather Forecast

Advertisements
Track Severe Weather on mobile